createdAt,value
2023-03-29T00:02:05.178Z,74.10
2023-03-29T00:04:32.127Z,74.10
2023-03-29T00:07:04.249Z,74.10
2023-03-29T00:09:32.985Z,74.20
2023-03-29T00:12:01.341Z,74.20
2023-03-29T00:14:30.412Z,74.20
2023-03-29T00:16:58.337Z,74.40
2023-03-29T00:19:25.452Z,74.30
2023-03-29T00:21:52.398Z,74.40
2023-03-29T00:24:21.043Z,74.50
2023-03-29T00:26:48.437Z,74.40
2023-03-29T00:29:15.526Z,74.50
2023-03-29T00:31:44.451Z,74.50
2023-03-29T00:34:11.683Z,74.50
2023-03-29T00:36:40.466Z,74.50
2023-03-29T00:39:07.419Z,74.40
2023-03-29T00:41:34.497Z,74.50
2023-03-29T00:44:03.269Z,74.40
2023-03-29T00:46:31.293Z,74.50
2023-03-29T00:49:12.668Z,74.50
2023-03-29T00:51:42.649Z,74.50
2023-03-29T00:54:14.788Z,74.60
2023-03-29T00:56:46.177Z,74.60
2023-03-29T00:59:21.633Z,74.60
2023-03-29T01:02:00.080Z,74.50
2023-03-29T01:04:46.192Z,74.50
2023-03-29T01:07:32.178Z,74.60
2023-03-29T01:10:05.683Z,74.50
2023-03-29T01:12:39.159Z,74.40
2023-03-29T01:15:11.036Z,74.20
2023-03-29T01:17:40.594Z,74.20
2023-03-29T01:20:17.526Z,74.30
2023-03-29T01:22:56.382Z,74.30
2023-03-29T01:25:45.708Z,74.00
2023-03-29T01:28:17.891Z,73.80
2023-03-29T01:31:08.509Z,73.70
2023-03-29T01:33:41.612Z,73.80
2023-03-29T01:36:21.086Z,73.90
2023-03-29T01:39:04.962Z,73.60
2023-03-29T01:42:01.903Z,73.50
2023-03-29T01:44:50.941Z,73.40
2023-03-29T01:47:35.572Z,73.40
2023-03-29T01:50:19.650Z,73.40
2023-03-29T01:53:08.122Z,73.30
2023-03-29T01:55:49.493Z,73.30
2023-03-29T01:58:17.986Z,73.10
2023-03-29T02:00:46.679Z,73.10
2023-03-29T02:03:14.908Z,73.10
2023-03-29T02:05:43.059Z,73.20
2023-03-29T02:08:13.433Z,73.10
2023-03-29T02:10:40.614Z,73.10
2023-03-29T02:13:07.591Z,73.10
2023-03-29T02:15:34.514Z,73.10
2023-03-29T02:18:04.022Z,73.00
2023-03-29T02:20:40.602Z,73.00
2023-03-29T02:23:21.208Z,73.10
2023-03-29T02:25:50.909Z,73.20
2023-03-29T02:28:17.982Z,73.20
2023-03-29T02:30:56.226Z,73.20
2023-03-29T02:33:31.294Z,73.40
2023-03-29T02:36:08.047Z,73.50
2023-03-29T02:38:36.310Z,73.60
2023-03-29T02:41:03.895Z,73.70
2023-03-29T02:43:32.726Z,73.80
2023-03-29T02:46:00.132Z,73.90
2023-03-29T02:48:29.477Z,73.90
2023-03-29T02:51:01.284Z,74.00
2023-03-29T02:53:39.453Z,74.10
2023-03-29T02:56:06.911Z,74.10
2023-03-29T02:58:33.786Z,74.10
2023-03-29T03:01:02.590Z,74.10
2023-03-29T03:03:29.912Z,74.10
2023-03-29T03:06:01.613Z,74.20
2023-03-29T03:08:29.948Z,74.20
2023-03-29T03:10:57.209Z,74.30
2023-03-29T03:13:25.518Z,74.40
2023-03-29T03:15:52.518Z,74.40
2023-03-29T03:18:19.487Z,74.40
2023-03-29T03:21:01.735Z,74.50
2023-03-29T03:23:29.558Z,74.60
2023-03-29T03:25:58.133Z,75.60
2023-03-29T03:28:25.163Z,74.70
2023-03-29T03:30:52.322Z,74.80
2023-03-29T03:33:26.828Z,74.80
2023-03-29T03:36:13.876Z,74.90
2023-03-29T03:38:44.122Z,74.90
2023-03-29T03:41:11.690Z,75.00
2023-03-29T03:43:41.492Z,75.00
2023-03-29T03:46:08.620Z,75.00
2023-03-29T03:48:37.124Z,75.10
2023-03-29T03:51:16.880Z,75.10
2023-03-29T03:53:44.093Z,75.10
2023-03-29T03:56:14.326Z,75.20
2023-03-29T03:58:58.258Z,75.20
2023-03-29T04:01:27.278Z,75.10
2023-03-29T04:04:09.291Z,75.10
2023-03-29T04:06:37.269Z,75.10
2023-03-29T04:09:37.645Z,75.10
2023-03-29T04:12:27.448Z,75.30
2023-03-29T04:14:55.399Z,75.30
2023-03-29T04:17:23.937Z,75.40
2023-03-29T04:19:57.682Z,75.50
2023-03-29T04:22:26.953Z,75.50
2023-03-29T04:24:54.128Z,75.50
2023-03-29T04:27:53.392Z,75.50
2023-03-29T04:30:39.265Z,75.50
2023-03-29T04:33:16.332Z,75.40
2023-03-29T04:35:48.046Z,75.40
2023-03-29T04:38:16.995Z,76.40
2023-03-29T04:40:46.101Z,75.50
2023-03-29T04:43:34.420Z,75.50
2023-03-29T04:46:20.313Z,75.50
2023-03-29T04:49:07.472Z,75.40
2023-03-29T04:51:37.994Z,75.50
2023-03-29T04:54:05.460Z,75.50
2023-03-29T04:56:44.066Z,75.50
2023-03-29T04:59:29.126Z,75.40
2023-03-29T05:01:56.522Z,75.50
2023-03-29T05:04:24.615Z,75.40
2023-03-29T05:07:04.496Z,75.20
2023-03-29T05:09:34.333Z,75.20
2023-03-29T05:12:03.336Z,75.20
2023-03-29T05:14:37.410Z,75.10
2023-03-29T05:17:05.120Z,75.00
2023-03-29T05:19:32.360Z,74.90
2023-03-29T05:22:00.021Z,74.90
2023-03-29T05:24:26.905Z,74.90
2023-03-29T05:26:57.204Z,74.90
2023-03-29T05:29:26.583Z,74.90
2023-03-29T05:32:02.706Z,74.90
2023-03-29T05:34:31.446Z,74.80
2023-03-29T05:37:01.603Z,74.70
2023-03-29T05:39:35.215Z,74.90
2023-03-29T05:42:05.870Z,74.90
2023-03-29T05:44:42.676Z,74.80
2023-03-29T05:47:16.448Z,74.80
2023-03-29T05:49:43.326Z,74.80
2023-03-29T05:52:14.423Z,74.80
2023-03-29T05:54:42.160Z,75.00
2023-03-29T05:57:10.070Z,75.00
2023-03-29T05:59:37.076Z,74.80
2023-03-29T06:02:04.946Z,74.90
2023-03-29T06:04:33.775Z,74.90
2023-03-29T06:07:23.533Z,74.80
2023-03-29T06:10:10.013Z,74.90
2023-03-29T06:12:39.242Z,74.70
2023-03-29T06:15:06.965Z,74.80
2023-03-29T06:17:57.281Z,74.70
2023-03-29T06:20:24.233Z,74.60
2023-03-29T06:22:56.898Z,74.60
2023-03-29T06:25:24.992Z,74.50
2023-03-29T06:27:52.235Z,74.50
2023-03-29T06:30:20.888Z,74.50
2023-03-29T06:32:51.398Z,74.50
2023-03-29T06:35:32.900Z,74.60
2023-03-29T06:38:05.686Z,74.70
2023-03-29T06:40:59.738Z,74.70
2023-03-29T06:43:28.434Z,74.80
2023-03-29T06:46:12.041Z,74.80
2023-03-29T06:48:53.379Z,74.70
2023-03-29T06:51:23.426Z,74.80
2023-03-29T06:53:51.058Z,74.90
2023-03-29T06:56:18.567Z,75.10
2023-03-29T06:58:48.596Z,75.50
2023-03-29T07:01:34.648Z,75.70
2023-03-29T07:04:11.769Z,76.10
2023-03-29T07:07:02.454Z,76.10
2023-03-29T07:09:33.422Z,76.30
2023-03-29T07:12:29.316Z,76.40
2023-03-29T07:14:59.715Z,76.60
2023-03-29T07:17:46.880Z,76.80
2023-03-29T07:20:15.447Z,77.30
2023-03-29T07:22:51.010Z,77.20
2023-03-29T07:25:20.346Z,77.20
2023-03-29T07:27:47.534Z,77.20
2023-03-29T07:30:17.915Z,77.20
2023-03-29T07:32:46.454Z,76.90
2023-03-29T07:35:36.520Z,76.60
2023-03-29T07:38:04.077Z,76.50
2023-03-29T07:40:31.410Z,76.30
2023-03-29T07:42:58.832Z,76.20
2023-03-29T07:45:29.105Z,76.00
2023-03-29T07:48:02.199Z,75.80
2023-03-29T07:50:45.746Z,75.80
2023-03-29T07:53:13.275Z,76.00
2023-03-29T07:55:47.724Z,75.90
2023-03-29T07:58:44.260Z,75.50
2023-03-29T08:01:18.782Z,75.20
2023-03-29T08:04:09.630Z,75.40
2023-03-29T08:06:55.256Z,75.30
2023-03-29T08:09:27.266Z,75.00
2023-03-29T08:11:54.162Z,75.00
2023-03-29T08:14:26.544Z,75.10
2023-03-29T08:17:01.840Z,75.10
2023-03-29T08:19:29.273Z,74.80
2023-03-29T08:22:04.673Z,74.70
2023-03-29T08:24:50.198Z,74.90
2023-03-29T08:27:17.725Z,75.10
2023-03-29T08:29:44.911Z,75.40
2023-03-29T08:32:12.102Z,75.70
2023-03-29T08:34:38.971Z,75.40
2023-03-29T08:37:28.805Z,75.50
2023-03-29T08:39:57.457Z,75.50
2023-03-29T08:43:06.216Z,75.30
2023-03-29T08:45:56.432Z,75.20
2023-03-29T08:48:42.263Z,75.30
2023-03-29T08:51:28.080Z,75.60
2023-03-29T08:54:01.442Z,75.70
2023-03-29T08:56:53.635Z,75.20
2023-03-29T08:59:33.193Z,75.10
2023-03-29T09:02:05.127Z,75.10
2023-03-29T09:04:36.451Z,75.30
2023-03-29T09:07:23.439Z,75.50
2023-03-29T09:09:51.797Z,75.40
2023-03-29T09:12:47.238Z,75.50
2023-03-29T09:15:19.703Z,75.50
2023-03-29T09:18:22.513Z,75.60
2023-03-29T09:21:12.267Z,75.70
2023-03-29T09:24:05.808Z,76.00
2023-03-29T09:27:13.416Z,76.20
2023-03-29T09:29:45.368Z,75.90
2023-03-29T09:32:22.420Z,76.10
2023-03-29T09:35:18.131Z,76.20
2023-03-29T09:37:49.322Z,76.40
2023-03-29T09:40:22.695Z,76.30
2023-03-29T09:43:12.347Z,76.50
2023-03-29T09:45:40.933Z,76.90
2023-03-29T09:48:17.736Z,77.00
2023-03-29T09:50:51.538Z,77.10
2023-03-29T09:53:21.400Z,77.30
2023-03-29T09:56:08.500Z,77.10
2023-03-29T09:58:46.520Z,76.90
2023-03-29T10:01:17.490Z,76.70
2023-03-29T10:03:53.254Z,76.80
2023-03-29T10:06:24.087Z,77.00
2023-03-29T10:08:58.890Z,77.10
2023-03-29T10:11:41.606Z,76.80
2023-03-29T10:14:18.918Z,76.30
2023-03-29T10:16:46.530Z,76.30
2023-03-29T10:19:33.023Z,76.40
2023-03-29T10:22:02.554Z,76.80
2023-03-29T10:24:29.530Z,77.40
2023-03-29T10:27:03.476Z,77.50
2023-03-29T10:29:42.550Z,77.40
2023-03-29T10:32:16.649Z,76.40
2023-03-29T10:34:46.408Z,76.30
2023-03-29T10:37:16.695Z,76.40
2023-03-29T10:39:45.234Z,75.60
2023-03-29T10:42:19.580Z,74.60
2023-03-29T10:45:00.059Z,74.60
2023-03-29T10:47:34.360Z,74.90
2023-03-29T10:50:05.470Z,75.30
2023-03-29T10:52:33.486Z,75.80
2023-03-29T10:55:00.595Z,75.80
2023-03-29T10:57:37.618Z,75.90
2023-03-29T11:00:23.612Z,75.80
2023-03-29T11:03:13.119Z,75.80
2023-03-29T11:05:48.247Z,76.00
2023-03-29T11:08:31.977Z,76.80
2023-03-29T11:11:32.059Z,76.40
2023-03-29T11:14:17.313Z,75.80
2023-03-29T11:17:04.386Z,76.20
2023-03-29T11:19:43.682Z,76.20
2023-03-29T11:22:24.423Z,76.50
2023-03-29T11:25:33.946Z,76.70
2023-03-29T11:28:49.144Z,77.10
2023-03-29T11:31:22.762Z,76.90
2023-03-29T11:33:59.066Z,76.90
2023-03-29T11:36:25.978Z,76.90
2023-03-29T11:39:11.911Z,76.60
2023-03-29T11:41:42.671Z,76.60
2023-03-29T11:44:31.700Z,76.60
2023-03-29T11:47:38.708Z,76.80
2023-03-29T11:50:19.603Z,77.10
2023-03-29T11:52:56.526Z,77.10
2023-03-29T11:55:37.009Z,77.20
2023-03-29T11:58:16.771Z,77.60
2023-03-29T12:00:51.893Z,77.60
2023-03-29T12:03:32.356Z,77.20
2023-03-29T12:06:12.523Z,76.80
2023-03-29T12:08:48.320Z,76.40
2023-03-29T12:11:38.654Z,75.80
2023-03-29T12:14:12.669Z,75.70
2023-03-29T12:17:01.153Z,75.30
2023-03-29T12:19:54.573Z,74.90
2023-03-29T12:22:22.854Z,74.90
2023-03-29T12:24:54.013Z,75.00
2023-03-29T12:28:12.153Z,75.60
2023-03-29T12:30:58.308Z,76.10
2023-03-29T12:33:40.327Z,76.40
2023-03-29T12:36:42.284Z,76.50
2023-03-29T12:39:28.989Z,76.50
2023-03-29T12:42:23.007Z,76.50
2023-03-29T12:45:19.927Z,76.90
2023-03-29T12:47:49.021Z,77.00
2023-03-29T12:50:28.597Z,77.10
2023-03-29T12:53:22.064Z,77.10
2023-03-29T12:56:04.186Z,77.20
2023-03-29T12:58:40.230Z,78.20
2023-03-29T13:01:21.808Z,77.50
2023-03-29T13:03:50.374Z,77.50
2023-03-29T13:06:46.818Z,77.70
2023-03-29T13:09:24.170Z,78.00
2023-03-29T13:11:57.170Z,78.20
2023-03-29T13:14:30.051Z,78.30
2023-03-29T13:17:18.237Z,78.80
2023-03-29T13:20:10.910Z,78.90
2023-03-29T13:22:56.453Z,78.90
2023-03-29T13:25:43.525Z,78.70
2023-03-29T13:28:19.630Z,78.40
2023-03-29T13:30:57.680Z,78.70
2023-03-29T13:33:44.928Z,78.30
2023-03-29T13:36:31.916Z,78.10
2023-03-29T13:39:05.395Z,78.00
2023-03-29T13:41:40.048Z,77.80
2023-03-29T13:44:22.219Z,77.70
2023-03-29T13:47:00.950Z,77.50
2023-03-29T13:49:31.753Z,77.40
2023-03-29T13:52:47.880Z,77.20
2023-03-29T13:55:21.014Z,77.40
2023-03-29T13:58:10.675Z,77.20
2023-03-29T14:00:47.067Z,76.60
2023-03-29T14:03:17.587Z,76.70
2023-03-29T14:05:49.546Z,76.60
2023-03-29T14:08:27.278Z,76.50
2023-03-29T14:10:55.210Z,76.10
2023-03-29T14:13:25.994Z,76.20
2023-03-29T14:16:12.230Z,76.50
2023-03-29T14:18:44.519Z,76.40
2023-03-29T14:21:12.390Z,76.40
2023-03-29T14:23:42.063Z,76.50
2023-03-29T14:26:15.306Z,76.00
2023-03-29T14:29:02.248Z,76.10
2023-03-29T14:31:33.761Z,76.20
2023-03-29T14:34:03.450Z,76.00
2023-03-29T14:36:33.278Z,75.80
2023-03-29T14:39:08.133Z,76.10
2023-03-29T14:41:37.037Z,76.30
2023-03-29T14:44:06.647Z,76.10
2023-03-29T14:46:34.733Z,76.50
2023-03-29T14:49:02.365Z,76.10
2023-03-29T14:51:31.125Z,76.10
2023-03-29T14:54:03.421Z,75.90
2023-03-29T14:56:32.806Z,75.10
2023-03-29T14:59:02.551Z,75.00
2023-03-29T15:01:29.518Z,74.70
2023-03-29T15:04:10.441Z,74.30
2023-03-29T15:06:44.177Z,73.10
2023-03-29T15:09:40.034Z,72.80
2023-03-29T15:12:07.091Z,72.70
2023-03-29T15:14:35.494Z,72.90
2023-03-29T15:17:07.001Z,72.40
2023-03-29T15:19:34.382Z,72.30
2023-03-29T15:22:10.102Z,72.40
2023-03-29T15:24:43.095Z,71.10
2023-03-29T15:27:20.988Z,70.70
2023-03-29T15:29:48.416Z,70.40
2023-03-29T15:32:31.371Z,70.50
2023-03-29T15:35:04.917Z,70.50
2023-03-29T15:37:32.309Z,70.10
2023-03-29T15:39:59.341Z,69.40
2023-03-29T15:42:26.623Z,69.70
2023-03-29T15:44:55.135Z,69.90
2023-03-29T15:47:22.496Z,69.80
2023-03-29T15:49:49.400Z,69.50
2023-03-29T15:52:16.799Z,69.40
2023-03-29T15:54:43.922Z,70.20
2023-03-29T15:57:16.279Z,69.80
2023-03-29T15:59:43.797Z,69.60
2023-03-29T16:02:16.285Z,69.80
2023-03-29T16:04:43.772Z,70.30
2023-03-29T16:07:14.972Z,69.70
2023-03-29T16:09:42.296Z,70.10
2023-03-29T16:12:10.423Z,70.50
2023-03-29T16:14:37.325Z,70.50
2023-03-29T16:17:04.789Z,70.70
2023-03-29T16:19:33.098Z,70.70
2023-03-29T16:22:02.820Z,71.10
2023-03-29T16:24:32.147Z,71.30
2023-03-29T16:26:59.876Z,71.90
2023-03-29T16:29:26.789Z,71.80
2023-03-29T16:31:54.222Z,71.80
2023-03-29T16:34:22.653Z,71.80
2023-03-29T16:36:50.662Z,72.10
2023-03-29T16:39:18.235Z,72.20
2023-03-29T16:41:48.456Z,72.10
2023-03-29T16:44:23.899Z,72.10
2023-03-29T16:46:53.934Z,72.20
2023-03-29T16:49:21.561Z,72.30
2023-03-29T16:51:48.768Z,72.30
2023-03-29T16:54:19.732Z,72.50
2023-03-29T16:56:47.006Z,72.80
2023-03-29T16:59:14.241Z,73.00
2023-03-29T17:01:41.207Z,73.10
2023-03-29T17:04:08.582Z,73.20
2023-03-29T17:06:36.027Z,73.50
2023-03-29T17:09:03.615Z,73.70
2023-03-29T17:11:30.714Z,73.70
2023-03-29T17:13:57.755Z,73.80
2023-03-29T17:16:24.929Z,73.90
2023-03-29T17:18:51.862Z,73.90
2023-03-29T17:21:19.056Z,73.90
2023-03-29T17:23:46.658Z,74.00
2023-03-29T17:26:14.142Z,74.10
2023-03-29T17:28:41.309Z,74.10
2023-03-29T17:31:08.280Z,74.20
2023-03-29T17:33:36.114Z,74.20
2023-03-29T17:36:04.755Z,74.20
2023-03-29T17:38:34.083Z,74.30
2023-03-29T17:41:02.773Z,74.30
2023-03-29T17:43:30.162Z,74.30
2023-03-29T17:45:57.122Z,74.60
2023-03-29T17:48:24.621Z,74.60
2023-03-29T17:50:51.685Z,74.60
2023-03-29T17:53:18.672Z,74.70
2023-03-29T17:55:45.798Z,74.50
2023-03-29T17:58:12.911Z,74.60
2023-03-29T18:00:39.888Z,74.60
2023-03-29T18:03:06.958Z,74.50
2023-03-29T18:05:35.658Z,74.60
2023-03-29T18:08:03.108Z,74.60
2023-03-29T18:10:30.301Z,74.60
2023-03-29T18:12:57.135Z,74.50
2023-03-29T18:15:24.081Z,74.30
2023-03-29T18:17:51.023Z,74.30
2023-03-29T18:20:18.348Z,74.30
2023-03-29T18:22:45.443Z,74.40
2023-03-29T18:25:12.383Z,74.60
2023-03-29T18:27:39.821Z,74.60
2023-03-29T18:30:08.691Z,74.60
2023-03-29T18:32:36.512Z,74.70
2023-03-29T18:35:03.628Z,75.70
2023-03-29T18:37:30.462Z,74.90
2023-03-29T18:39:57.221Z,75.10
2023-03-29T18:42:24.148Z,75.10
2023-03-29T18:44:51.238Z,76.00
2023-03-29T18:47:18.410Z,75.40
2023-03-29T18:49:45.534Z,75.20
2023-03-29T18:52:12.497Z,75.30
2023-03-29T18:54:39.423Z,75.30
2023-03-29T18:57:06.461Z,75.30
2023-03-29T18:59:35.937Z,75.30
2023-03-29T19:02:03.638Z,75.40
2023-03-29T19:04:30.602Z,75.60
2023-03-29T19:06:57.530Z,75.60
2023-03-29T19:09:24.418Z,75.70
2023-03-29T19:11:51.267Z,75.70
2023-03-29T19:14:23.310Z,75.90
2023-03-29T19:16:52.037Z,76.00
2023-03-29T19:19:21.356Z,76.10
2023-03-29T19:21:48.881Z,76.20
2023-03-29T19:24:16.596Z,76.30
2023-03-29T19:26:44.461Z,76.40
2023-03-29T19:29:11.601Z,76.40
2023-03-29T19:31:38.722Z,76.50
2023-03-29T19:34:06.829Z,76.70
2023-03-29T19:36:33.791Z,76.80
2023-03-29T19:39:00.912Z,77.10
2023-03-29T19:41:28.280Z,77.20
2023-03-29T19:43:55.361Z,77.50
2023-03-29T19:46:22.678Z,77.60
2023-03-29T19:48:51.725Z,77.80
2023-03-29T19:51:19.583Z,77.90
2023-03-29T19:53:47.202Z,78.00
2023-03-29T19:56:15.761Z,78.10
2023-03-29T19:58:43.099Z,78.20
2023-03-29T20:01:10.080Z,78.40
2023-03-29T20:03:36.971Z,78.50
2023-03-29T20:06:04.261Z,78.60
2023-03-29T20:08:31.231Z,78.90
2023-03-29T20:11:10.044Z,79.00
2023-03-29T20:13:44.545Z,79.10
2023-03-29T20:16:14.394Z,79.20
2023-03-29T20:18:41.244Z,79.40
2023-03-29T20:21:08.833Z,79.40
2023-03-29T20:23:36.086Z,79.70
2023-03-29T20:26:03.281Z,79.80
2023-03-29T20:28:30.382Z,79.90
2023-03-29T20:30:57.225Z,80.00
2023-03-29T20:33:24.425Z,80.20
2023-03-29T20:35:51.293Z,80.30
2023-03-29T20:38:18.250Z,80.50
2023-03-29T20:40:45.179Z,80.60
2023-03-29T20:43:13.429Z,80.80
2023-03-29T20:45:52.733Z,81.00
2023-03-29T20:48:30.404Z,81.20
2023-03-29T20:50:57.786Z,81.30
2023-03-29T20:53:25.165Z,81.40
2023-03-29T20:55:52.036Z,81.60
2023-03-29T20:58:18.869Z,81.70
2023-03-29T21:00:46.798Z,81.80
2023-03-29T21:03:14.012Z,81.90
2023-03-29T21:05:40.920Z,81.90
2023-03-29T21:08:08.435Z,82.10
2023-03-29T21:10:36.582Z,82.00
2023-03-29T21:13:03.549Z,82.00
2023-03-29T21:15:31.061Z,81.90
2023-03-29T21:17:58.335Z,81.70
2023-03-29T21:20:25.348Z,81.70
2023-03-29T21:22:52.223Z,81.70
2023-03-29T21:25:19.409Z,81.60
2023-03-29T21:27:46.446Z,81.60
2023-03-29T21:30:13.704Z,81.60
2023-03-29T21:32:41.091Z,81.70
2023-03-29T21:35:08.868Z,81.80
2023-03-29T21:37:35.995Z,81.80
2023-03-29T21:40:05.874Z,82.80
2023-03-29T21:42:36.199Z,81.90
2023-03-29T21:45:03.262Z,82.00
2023-03-29T21:47:30.676Z,82.00
2023-03-29T21:49:57.627Z,82.20
2023-03-29T21:52:24.535Z,82.20
2023-03-29T21:54:51.446Z,82.20
2023-03-29T21:57:18.401Z,82.10
2023-03-29T21:59:45.376Z,82.00
2023-03-29T22:02:12.233Z,82.00
2023-03-29T22:04:39.301Z,81.90
2023-03-29T22:07:08.338Z,81.90
2023-03-29T22:09:35.541Z,81.90
2023-03-29T22:12:04.053Z,81.80
2023-03-29T22:14:35.180Z,81.70
2023-03-29T22:17:05.742Z,81.80
2023-03-29T22:19:34.748Z,82.50
2023-03-29T22:22:01.732Z,81.70
2023-03-29T22:24:29.145Z,81.70
2023-03-29T22:26:56.106Z,81.70
2023-03-29T22:29:23.079Z,81.60
2023-03-29T22:31:50.523Z,81.50
2023-03-29T22:34:17.563Z,81.40
2023-03-29T22:36:44.402Z,81.20
2023-03-29T22:39:12.011Z,81.00
2023-03-29T22:41:38.981Z,80.80
2023-03-29T22:44:05.939Z,80.80
2023-03-29T22:46:33.064Z,80.70
2023-03-29T22:49:00.267Z,80.60
2023-03-29T22:51:27.379Z,80.60
2023-03-29T22:53:54.362Z,80.30
2023-03-29T22:56:22.035Z,80.20
2023-03-29T22:58:49.086Z,80.10
2023-03-29T23:01:16.189Z,80.00
2023-03-29T23:03:43.114Z,79.90
2023-03-29T23:06:10.048Z,79.80
2023-03-29T23:08:37.021Z,79.60
2023-03-29T23:11:04.590Z,79.40
2023-03-29T23:13:33.482Z,79.30
2023-03-29T23:16:02.149Z,79.30
2023-03-29T23:18:31.338Z,79.30
2023-03-29T23:20:59.055Z,79.10
2023-03-29T23:23:28.108Z,79.10
2023-03-29T23:25:55.960Z,78.80
2023-03-29T23:28:30.327Z,78.90
2023-03-29T23:31:00.990Z,78.80
2023-03-29T23:33:33.376Z,78.60
2023-03-29T23:36:03.455Z,78.50
2023-03-29T23:38:31.223Z,78.40
2023-03-29T23:41:03.871Z,78.20
2023-03-29T23:43:33.937Z,78.10
2023-03-29T23:46:03.117Z,78.00
2023-03-29T23:48:30.313Z,77.90
2023-03-29T23:50:57.270Z,77.70
2023-03-29T23:53:25.459Z,77.70
2023-03-29T23:55:55.248Z,77.50
2023-03-29T23:58:22.219Z,77.40
